Time;durP1;ratioP1;P1;durP2;ratioP2;P2;SDS_P1;SDS_P2;PMS_P1;PMS_P2;Temp;Humidity;BMP_temperature;BMP_pressure;BME280_temperature;BME280_humidity;BME280_pressure;Samples;Min_cycle;Max_cycle;Signal;HPM_P1;HPM_P2
2022/12/11 00:00:22;;;;;;;0.20;0.20;;;-4.60;99.90;;;-4.91;100.00;99380.97;4939574;28;20232;-65
2022/12/11 00:02:49;;;;;;;0.30;0.30;;;-4.60;99.90;;;-4.87;100.00;99386.38;4938708;28;21179;-64
2022/12/11 00:05:16;;;;;;;0.30;0.30;;;-4.60;99.90;;;-4.84;100.00;99398.53;4924953;28;20231;-64
2022/12/11 00:07:43;;;;;;;0.30;0.30;;;-4.50;99.90;;;-4.75;100.00;99395.56;4939206;28;20335;-64
2022/12/11 00:10:10;;;;;;;0.20;0.20;;;-4.50;99.90;;;-4.73;100.00;99399.09;4955852;28;20228;-64
2022/12/11 00:12:37;;;;;;;0.40;0.40;;;-4.40;99.90;;;-4.67;100.00;99404.56;4944065;28;20232;-64
2022/12/11 00:15:05;;;;;;;0.20;0.20;;;-4.40;99.90;;;-4.68;100.00;99406.28;4937485;28;20232;-64
2022/12/11 00:17:32;;;;;;;0.20;0.20;;;-4.40;99.90;;;-4.42;100.00;99432.53;4937378;28;20243;-64
2022/12/11 00:19:59;;;;;;;0.20;0.20;;;-4.20;99.90;;;-4.46;100.00;99425.44;4925050;28;20328;-64
2022/12/11 00:22:28;;;;;;;0.20;0.20;;;-4.20;99.90;;;-4.44;100.00;99431.56;4951473;28;20327;-64
2022/12/11 00:24:56;;;;;;;0.20;0.20;;;-4.10;99.90;;;-4.39;100.00;99440.44;4929610;28;20234;-64
2022/12/11 00:27:23;;;;;;;0.20;0.20;;;-4.10;99.90;;;-4.26;100.00;99448.00;4943271;28;20233;-64
2022/12/11 00:29:50;;;;;;;0.30;0.30;;;-4.00;99.90;;;-4.14;100.00;99461.53;4919335;28;20263;-64
2022/12/11 00:32:17;;;;;;;0.20;0.20;;;-3.80;99.90;;;-4.11;100.00;99459.09;4944762;28;20324;-64
2022/12/11 00:34:44;;;;;;;1.30;0.95;;;-3.80;99.90;;;-4.15;100.00;99451.13;4947306;28;20319;-64
2022/12/11 00:37:10;;;;;;;0.20;0.20;;;-3.80;99.90;;;-4.04;100.00;99452.56;4956834;28;20319;-64
2022/12/11 00:39:38;;;;;;;0.20;0.20;;;-3.70;99.90;;;-4.04;100.00;99452.56;4943249;28;20310;-64
2022/12/11 02:49:21;;;;;;;0.17;0.17;;;-2.80;99.90;;;-3.16;100.00;99466.41;5139787;23;20265;-71
2022/12/11 02:51:50;;;;;;;0.10;0.10;;;-2.80;99.90;;;-3.15;100.00;99470.75;4906734;29;20310;-70
2022/12/11 02:54:28;;;;;;;0.10;0.10;;;-2.80;99.90;;;-3.10;100.00;99475.31;4893164;29;20239;-70
2022/12/11 02:57:13;;;;;;;0.10;0.10;;;-2.80;99.90;;;-3.09;100.00;99471.94;4912851;29;20254;-71
2022/12/11 02:59:45;;;;;;;0.10;0.10;;;-2.80;99.90;;;-3.09;100.00;99468.44;4924079;29;20262;-70
2022/12/11 03:02:15;;;;;;;0.10;0.10;;;-2.70;99.90;;;-3.03;100.00;99474.81;4932633;29;20251;-72
2022/12/11 03:04:45;;;;;;;0.20;0.20;;;-2.80;99.90;;;-3.01;100.00;99472.28;4914293;29;20246;-72
2022/12/11 03:07:22;;;;;;;0.10;0.10;;;-2.70;99.90;;;-2.98;100.00;99477.59;4910294;29;20273;-72
2022/12/11 03:09:50;;;;;;;0.40;0.40;;;-2.40;99.90;;;-2.97;100.00;99479.38;4907647;29;20233;-77
2022/12/11 03:12:28;;;;;;;0.10;0.10;;;-2.70;99.90;;;-2.96;100.00;99486.31;4928382;29;20265;-72
2022/12/11 03:14:59;;;;;;;0.32;0.32;;;-2.70;99.90;;;-2.99;100.00;99479.31;4912834;29;20235;-72
2022/12/11 03:17:40;;;;;;;0.17;0.17;;;-2.70;99.90;;;-2.99;100.00;99470.66;4910784;29;20234;-72
2022/12/11 03:20:19;;;;;;;0.10;0.10;;;-2.70;99.90;;;-3.01;100.00;99470.59;4921217;29;20670;-72
2022/12/11 03:23:28;;;;;;;0.20;0.20;;;-2.70;99.90;;;-3.03;100.00;99479.97;4936687;29;20321;-75
2022/12/11 03:26:01;;;;;;;0.20;0.20;;;-2.70;99.90;;;-3.06;100.00;99471.19;4922545;28;20310;-72
2022/12/11 03:28:52;;;;;;;0.20;0.20;;;-2.80;99.90;;;-3.01;100.00;99478.34;4899380;29;20227;-77
2022/12/11 03:31:43;;;;;;;0.15;0.15;;;-2.70;99.90;;;-2.96;100.00;99491.50;4914972;29;20245;-72
2022/12/11 03:34:27;;;;;;;0.13;0.13;;;-2.70;99.90;;;-2.96;100.00;99489.78;4908370;29;20747;-72
2022/12/11 03:36:56;;;;;;;0.10;0.10;;;-2.70;99.90;;;-2.97;100.00;99503.53;4911869;29;20302;-72
2022/12/11 03:39:48;;;;;;;0.20;0.20;;;-2.70;99.90;;;-2.96;100.00;99507.00;4910680;29;20250;-77
2022/12/11 03:42:18;;;;;;;0.22;0.22;;;-2.70;99.90;;;-2.95;100.00;99507.09;4911125;29;20330;-72
2022/12/11 03:44:48;;;;;;;0.10;0.10;;;-2.60;99.90;;;-2.95;100.00;99521.72;4896492;29;20246;-72
2022/12/11 03:47:21;;;;;;;0.20;0.20;;;-2.60;99.90;;;-2.94;100.00;99526.06;4922897;29;20243;-73
2022/12/11 03:49:49;;;;;;;0.63;0.63;;;-2.60;99.90;;;-2.91;100.00;99523.63;4910717;29;20259;-77
2022/12/11 03:52:17;;;;;;;0.10;0.10;;;-2.60;99.90;;;-2.89;100.00;99529.78;4918516;29;20250;-72
2022/12/11 03:54:48;;;;;;;0.50;0.50;;;-2.60;99.90;;;-2.91;100.00;99523.63;4912738;29;20270;-72
2022/12/11 03:57:20;;;;;;;0.47;0.47;;;-2.60;99.90;;;-2.95;100.00;99514.84;4912249;29;20258;-72
2022/12/11 03:59:48;;;;;;;0.20;0.20;;;-2.60;99.90;;;-3.01;100.00;99519.72;4913976;29;20289;-72
2022/12/11 04:02:16;;;;;;;0.20;0.20;;;-2.70;99.90;;;-3.01;100.00;99516.25;4914449;29;20238;-80
2022/12/11 04:04:43;;;;;;;0.10;0.10;;;-2.70;99.90;;;-3.07;100.00;99511.69;4926753;29;20309;-74
2022/12/11 04:07:10;;;;;;;0.20;0.20;;;-2.70;99.90;;;-3.04;100.00;99518.69;4913386;29;20331;-73
2022/12/11 04:09:37;;;;;;;0.20;0.20;;;-2.70;99.90;;;-3.05;100.00;99511.75;4926421;29;20263;-73
2022/12/11 04:12:04;;;;;;;0.20;0.20;;;-4.70;99.90;;;-3.05;100.00;99519.50;4914481;29;20314;-73
2022/12/11 04:24:14;;;;;;;0.60;0.60;;;-2.70;99.90;;;-3.00;100.00;99520.63;4926452;29;20322;-75
2022/12/11 04:25:36;;;;;;;0.20;0.20;;;-2.70;99.90;;;-3.04;100.00;99503.19;4914491;29;20309;-76
2022/12/11 04:28:03;;;;;;;0.20;0.20;;;-2.80;99.90;;;-3.06;100.00;99508.28;4926126;29;20231;-73
2022/12/11 04:30:30;;;;;;;0.20;0.20;;;-2.00;99.90;;;-3.07;100.00;99516.84;4921377;29;20226;-78
2022/12/11 04:33:00;;;;;;;0.20;0.20;;;-2.80;99.90;;;-3.10;100.00;99508.94;4918165;29;20234;-84
2022/12/11 04:35:28;;;;;;;0.10;0.10;;;-2.80;99.90;;;-3.12;100.00;99505.41;4914940;29;20330;-73
2022/12/11 04:37:55;;;;;;;0.20;0.20;;;-2.30;99.90;;;-3.20;100.00;99498.97;4900549;29;20231;-74
2022/12/11 04:40:22;;;;;;;0.38;0.38;;;-2.90;99.90;;;-3.18;100.00;99507.69;4917753;29;20286;-73
2022/12/11 04:42:49;;;;;;;0.28;0.28;;;-2.90;99.90;;;-3.19;100.00;99508.50;4921817;29;20241;-73
2022/12/11 04:45:17;;;;;;;0.20;0.20;;;-2.90;99.90;;;-3.15;100.00;99502.66;4912755;29;20250;-73
2022/12/11 04:47:44;;;;;;;0.63;0.63;;;-2.80;99.90;;;-3.13;100.00;99503.63;4923777;29;20306;-73
2022/12/11 04:50:13;;;;;;;0.20;0.20;;;-2.80;99.90;;;-3.16;100.00;99495.72;4921173;29;20348;-72
2022/12/11 04:52:41;;;;;;;0.22;0.22;;;-2.80;99.90;;;-3.24;100.00;99489.28;4927142;29;20231;-76
2022/12/11 04:55:10;;;;;;;0.20;0.20;;;-2.90;99.90;;;-3.23;100.00;99481.63;4919765;29;20227;-76
2022/12/11 04:57:38;;;;;;;0.20;0.20;;;-2.90;99.90;;;-3.25;100.00;99474.59;4918572;29;20326;-73
2022/12/11 05:00:09;;;;;;;0.20;0.20;;;-2.90;99.90;;;-3.23;100.00;99483.31;4931164;29;20320;-73
2022/12/11 05:02:39;;;;;;;0.20;0.20;;;-2.90;99.90;;;-3.22;100.00;99480.81;4933194;29;20290;-75
2022/12/11 05:05:09;;;;;;;0.22;0.22;;;-2.90;99.90;;;-3.22;100.00;99477.34;4928657;29;20658;-74
2022/12/11 05:07:37;;;;;;;0.30;0.30;;;-1.00;99.90;;;-3.17;100.00;99480.13;4917098;29;20235;-73
2022/12/11 05:10:06;;;;;;;0.20;0.20;;;-2.90;99.90;;;-3.20;100.00;99475.69;4916841;29;20329;-73
2022/12/11 05:12:33;;;;;;;0.20;0.20;;;-2.90;99.90;;;-3.18;100.00;99476.66;4915804;29;20298;-74
2022/12/11 05:15:00;;;;;;;0.20;0.20;;;-2.90;99.90;;;-3.14;100.00;99480.28;4921337;29;20230;-81
2022/12/11 05:20:21;;;;;;;0.20;0.20;;;-2.90;99.90;;;-3.25;100.00;99477.19;5338386;23;20229;-71
2022/12/11 05:22:48;;;;;;;0.20;0.20;;;-2.90;99.90;;;-3.15;100.00;99483.69;4947634;28;20265;-72
2022/12/11 05:25:15;;;;;;;0.20;0.20;;;-2.90;99.90;;;-3.17;100.00;99485.31;4955995;28;20316;-72
2022/12/11 05:27:42;;;;;;;0.20;0.20;;;-2.90;99.90;;;-3.16;100.00;99481.91;4954083;28;20245;-72
2022/12/11 05:30:09;;;;;;;0.77;0.77;;;-2.90;99.90;;;-3.13;100.00;99487.22;4947527;28;20334;-71
2022/12/11 05:35:12;;;;;;;0.20;0.20;;;-2.90;99.90;;;-3.17;100.00;99491.38;4925269;29;20242;-76
2022/12/11 05:37:39;;;;;;;0.20;0.20;;;-1.80;99.90;;;-3.07;100.00;99503.03;4930183;29;20246;-78
2022/12/11 05:40:07;;;;;;;0.20;0.20;;;-2.80;99.90;;;-3.05;100.00;99504.00;4930915;29;20246;-76
2022/12/11 05:42:34;;;;;;;0.20;0.20;;;-2.80;99.90;;;-3.02;100.00;99506.72;4933295;29;20322;-78
2022/12/11 05:45:02;;;;;;;0.20;0.20;;;-2.70;99.90;;;-3.01;100.00;99503.31;4922177;29;20299;-77
2022/12/11 05:47:30;;;;;;;0.20;0.20;;;-2.70;99.90;;;-3.01;100.00;99503.31;4941833;29;20248;-77
2022/12/11 05:49:57;;;;;;;0.30;0.30;;;-2.70;99.90;;;-3.03;100.00;99503.25;4915398;29;20287;-78
2022/12/11 05:52:24;;;;;;;0.45;0.45;;;-2.70;99.90;;;-2.97;100.00;99502.66;4934498;29;20663;-77
2022/12/11 05:54:51;;;;;;;0.20;0.20;;;-2.70;99.90;;;-2.89;100.00;99519.41;4917873;29;20623;-80
2022/12/11 05:57:18;;;;;;;0.20;0.20;;;-2.50;99.90;;;-2.93;100.00;99518.38;4943913;29;20234;-80
2022/12/11 05:59:45;;;;;;;0.30;0.30;;;-2.60;99.90;;;-2.94;100.00;99519.22;4935549;29;20321;-79
2022/12/11 06:02:12;;;;;;;0.20;0.20;;;-2.70;99.90;;;-2.86;100.00;99524.75;4895542;29;20314;-76
2022/12/11 06:04:39;;;;;;;0.13;0.13;;;-2.60;99.90;;;-2.89;100.00;99522.00;4907018;29;20251;-77
2022/12/11 06:07:06;;;;;;;0.20;0.20;;;-2.60;99.90;;;-2.96;100.00;99518.25;4931850;29;20245;-80
2022/12/11 06:09:33;;;;;;;0.20;0.20;;;-2.70;99.90;;;-2.95;100.00;99524.31;4928554;29;20241;-76
2022/12/11 06:12:00;;;;;;;1.35;1.30;;;-2.70;99.90;;;-2.88;100.00;99517.72;4931402;29;20353;-80
2022/12/11 06:14:27;;;;;;;0.20;0.20;;;-2.60;99.90;;;-2.94;100.00;99510.56;4929951;29;20278;-79
2022/12/11 06:16:54;;;;;;;0.20;0.20;;;-2.60;99.90;;;-2.98;100.00;99509.53;4931874;29;20246;-77
2022/12/11 06:19:21;;;;;;;0.17;0.17;;;-2.70;99.90;;;-2.94;100.00;99508.84;4935635;29;20308;-75
2022/12/11 06:21:50;;;;;;;0.10;0.10;;;-2.60;99.90;;;-2.88;100.00;99512.56;4933290;29;20233;-75
2022/12/11 06:24:17;;;;;;;0.10;0.10;;;-2.60;99.90;;;-2.94;100.00;99505.38;4930711;29;20261;-75
2022/12/11 06:26:44;;;;;;;0.20;0.20;;;-2.60;99.90;;;-2.94;100.00;99501.09;4937629;29;20230;-76
2022/12/11 06:29:11;;;;;;;0.20;0.20;;;-2.70;99.90;;;-2.95;100.00;99509.66;4936813;29;20348;-76
2022/12/11 06:31:39;;;;;;;0.20;0.20;;;-2.40;99.90;;;-2.96;100.00;99507.91;4938313;29;20238;-77
2022/12/11 06:34:06;;;;;;;0.20;0.20;;;-2.20;99.90;;;-2.86;100.00;99513.50;4927247;29;20249;-79
2022/12/11 06:36:33;;;;;;;0.20;0.20;;;-2.60;99.90;;;-2.90;100.00;99513.38;4931484;29;20234;-79
2022/12/11 06:39:00;;;;;;;0.20;0.20;;;-2.60;99.90;;;-2.88;100.00;99513.44;4931970;29;20233;-84
2022/12/11 06:41:27;;;;;;;0.20;0.20;;;-2.60;99.90;;;-2.93;100.00;99513.22;4928744;29;20251;-79
2022/12/11 06:43:54;;;;;;;0.20;0.20;;;-2.60;99.90;;;-2.92;100.00;99511.53;4937873;29;20273;-78
2022/12/11 06:46:21;;;;;;;0.10;0.10;;;-2.60;99.90;;;-2.93;100.00;99515.81;4938390;29;20317;-79
2022/12/11 06:48:49;;;;;;;0.22;0.22;;;-2.60;99.90;;;-2.90;100.00;99515.06;4937089;29;20230;-76
2022/12/11 06:51:22;;;;;;;0.20;0.20;;;-2.60;99.90;;;-2.91;100.00;99516.75;4932820;29;20262;-79
2022/12/11 06:53:54;;;;;;;0.20;0.20;;;-2.20;99.90;;;-2.90;100.00;99515.94;4926794;29;20302;-80
2022/12/11 06:56:23;;;;;;;0.85;0.85;;;-2.60;99.90;;;-2.91;100.00;99509.00;4945353;29;20680;-77
2022/12/11 06:58:50;;;;;;;0.20;0.20;;;-2.70;99.90;;;-2.96;100.00;99505.31;4931005;29;20254;-76
2022/12/11 07:01:23;;;;;;;0.98;0.98;;;-2.70;99.90;;;-2.93;100.00;99508.03;4917910;29;20246;-76
2022/12/11 07:03:53;;;;;;;0.20;0.20;;;-2.70;99.90;;;-2.95;100.00;99504.50;4931508;29;20387;-75
2022/12/11 07:06:20;;;;;;;0.20;0.20;;;-2.70;99.90;;;-2.97;100.00;99511.31;4936415;29;20316;-77
2022/12/11 07:08:48;;;;;;;1.55;1.48;;;-2.70;99.90;;;-3.02;100.00;99509.31;4931013;29;20261;-78
2022/12/11 07:11:16;;;;;;;0.20;0.20;;;-2.50;99.90;;;-2.98;100.00;99516.41;4926814;29;20230;-76
2022/12/11 07:13:44;;;;;;;0.10;0.10;;;-2.70;99.90;;;-2.99;100.00;99518.09;4927340;29;20313;-77
2022/12/11 07:16:13;;;;;;;1.27;1.27;;;-2.70;99.90;;;-3.00;100.00;99520.63;4932874;29;20325;-77
2022/12/11 07:18:46;;;;;;;0.20;0.20;;;-2.70;99.90;;;-3.00;100.00;99521.50;4934241;29;20234;-79
2022/12/11 07:21:14;;;;;;;0.20;0.20;;;-2.70;99.90;;;-3.06;100.00;99517.72;4915901;29;20321;-79
2022/12/11 07:23:41;;;;;;;0.20;0.20;;;-2.60;99.90;;;-3.01;100.00;99516.25;4932125;29;20238;-76
2022/12/11 07:26:12;;;;;;;0.40;0.40;;;-2.70;99.90;;;-2.94;100.00;99518.31;4914647;29;20237;-75
2022/12/11 07:28:41;;;;;;;0.20;0.20;;;-2.00;99.90;;;-2.94;100.00;99520.91;4929335;29;20321;-76
2022/12/11 07:31:16;;;;;;;0.20;0.20;;;-2.70;99.90;;;-2.97;100.00;99519.06;4925468;29;20325;-74
2022/12/11 07:33:44;;;;;;;0.20;0.20;;;-2.70;99.90;;;-2.97;100.00;99519.06;4929702;29;20233;-77
2022/12/11 07:36:13;;;;;;;0.20;0.20;;;-2.70;99.90;;;-2.95;100.00;99530.38;4914388;29;20282;-78
2022/12/11 07:38:41;;;;;;;0.20;0.20;;;-2.70;99.90;;;-2.95;100.00;99527.78;4925458;29;20258;-78
2022/12/11 07:41:11;;;;;;;0.40;0.40;;;-2.70;99.90;;;-3.04;100.00;99537.69;4912227;29;20230;-77
2022/12/11 07:43:39;;;;;;;0.20;0.20;;;-2.70;99.90;;;-2.96;100.00;99532.88;4926967;29;20318;-77
2022/12/11 07:46:13;;;;;;;0.20;0.20;;;-2.40;99.90;;;-2.91;100.00;99536.56;4928769;29;20231;-76
2022/12/11 07:48:43;;;;;;;0.90;0.90;;;-2.70;99.90;;;-2.93;100.00;99539.09;4927989;29;20258;-77
2022/12/11 07:51:16;;;;;;;0.20;0.20;;;-2.70;99.90;;;-2.87;100.00;99541.06;4923922;23;20233;-74
2022/12/11 07:53:45;;;;;;;0.20;0.20;;;-2.60;99.90;;;-2.95;100.00;99526.91;4925167;29;20313;-73
2022/12/11 07:56:13;;;;;;;0.10;0.10;;;-2.70;99.90;;;-2.92;100.00;99534.81;4931282;29;20261;-74
2022/12/11 07:58:40;;;;;;;0.20;0.20;;;-2.70;99.90;;;-2.94;100.00;99532.13;4928727;29;20373;-74
2022/12/11 08:01:24;;;;;;;0.20;0.20;;;-2.70;99.90;;;-2.93;100.00;99526.16;4927725;29;20267;-74
2022/12/11 08:03:53;;;;;;;0.20;0.20;;;-2.50;99.90;;;-2.97;100.00;99528.53;4929016;29;20994;-76
2022/12/11 08:06:26;;;;;;;0.20;0.20;;;-2.60;99.90;;;-2.88;100.00;99544.47;4916558;29;20242;-74
2022/12/11 08:08:55;;;;;;;0.20;0.20;;;-2.60;99.90;;;-2.95;100.00;99535.53;4926734;29;20227;-74
2022/12/11 08:11:23;;;;;;;0.20;0.20;;;-2.70;99.90;;;-2.94;100.00;99539.91;4912885;29;20238;-74
2022/12/11 08:13:50;;;;;;;0.20;0.20;;;-2.70;99.90;;;-2.85;100.00;99544.63;4926213;29;20241;-72
2022/12/11 08:16:18;;;;;;;0.20;0.20;;;-2.60;99.90;;;-2.83;100.00;99542.09;4927384;29;20310;-73
2022/12/11 08:18:46;;;;;;;0.20;0.20;;;-2.60;99.90;;;-2.80;100.00;99545.72;4917850;29;20233;-73
2022/12/11 08:21:21;;;;;;;0.30;0.30;;;-2.50;99.90;;;-2.72;100.00;99549.56;4922502;29;20313;-72
2022/12/11 08:23:50;;;;;;;0.10;0.10;;;-2.50;99.90;;;-2.71;100.00;99559.09;4937067;29;20328;-73
2022/12/11 08:26:25;;;;;;;0.20;0.20;;;-2.50;99.90;;;-2.70;100.00;99557.41;4933354;29;20325;-73
2022/12/11 08:28:53;;;;;;;0.10;0.10;;;-2.40;99.90;;;-2.67;100.00;99554.97;4915070;29;20265;-73
2022/12/11 08:31:21;;;;;;;1.05;1.05;;;-2.40;99.90;;;-2.60;100.00;99560.53;4925841;29;20327;-73
2022/12/11 08:33:49;;;;;;;0.20;0.20;;;-2.40;99.90;;;-2.60;100.00;99568.28;4931248;29;20245;-72
2022/12/11 08:36:20;;;;;;;0.10;0.10;;;-2.30;99.90;;;-2.56;100.00;99581.38;4931317;29;20317;-73
2022/12/11 08:38:48;;;;;;;0.85;0.85;;;-2.30;99.90;;;-2.51;100.00;99587.66;4909438;29;20253;-72
2022/12/11 08:41:21;;;;;;;0.10;0.10;;;-2.30;99.90;;;-2.47;100.00;99603.41;4932434;29;20585;-73
2022/12/11 08:43:48;;;;;;;0.10;0.10;;;-2.20;99.90;;;-2.44;100.00;99595.78;4921737;29;20234;-73
2022/12/11 08:46:15;;;;;;;0.10;0.10;;;-2.20;99.90;;;-2.38;100.00;99606.41;4926400;29;20329;-73
2022/12/11 08:48:43;;;;;;;0.13;0.13;;;-2.10;99.90;;;-2.35;100.00;99609.16;4915856;29;20226;-76
2022/12/11 08:51:14;;;;;;;0.20;0.20;;;-2.10;99.90;;;-2.27;100.00;99614.69;4931099;29;20241;-73
2022/12/11 08:53:41;;;;;;;0.13;0.13;;;-2.00;99.90;;;-2.18;100.00;99622.00;4927665;29;20226;-75
2022/12/11 08:56:18;;;;;;;0.20;0.20;;;-2.00;99.90;;;-2.21;100.00;99619.25;4925273;29;20235;-74
2022/12/11 08:58:46;;;;;;;0.10;0.10;;;-2.00;99.90;;;-2.16;100.00;99621.25;4928852;29;20254;-72
2022/12/11 09:01:21;;;;;;;0.32;0.32;;;-1.90;99.90;;;-2.13;100.00;99616.22;4928287;29;20285;-72
2022/12/11 09:03:49;;;;;;;0.13;0.13;;;-1.50;99.90;;;-2.12;100.00;99614.50;4918369;29;20316;-72
2022/12/11 09:06:22;;;;;;;0.30;0.30;;;-1.90;99.90;;;-2.12;100.00;99612.81;4942366;29;20309;-72
2022/12/11 09:08:51;;;;;;;0.10;0.10;;;-1.80;99.90;;;-2.08;100.00;99609.53;4928411;29;20239;-72
2022/12/11 09:11:23;;;;;;;0.10;0.10;;;-1.80;99.90;;;-2.08;100.00;99603.47;4916849;29;20254;-72
2022/12/11 09:13:51;;;;;;;0.20;0.20;;;-1.80;99.90;;;-2.05;100.00;99611.38;4919590;29;21884;-72
2022/12/11 09:16:21;;;;;;;0.30;0.30;;;-1.70;99.90;;;-1.99;100.00;99609.94;4909539;29;20286;-72
2022/12/11 09:18:50;;;;;;;0.20;0.20;;;-1.70;99.90;;;-1.99;100.00;99617.72;4929767;29;20240;-72
2022/12/11 09:21:22;;;;;;;0.10;0.10;;;-1.70;99.90;;;-1.96;100.00;99614.38;4929556;29;20233;-72
2022/12/11 09:23:53;;;;;;;0.20;0.20;;;-0.80;99.90;;;-1.95;100.00;99613.56;4909620;29;20242;-73
2022/12/11 09:26:21;;;;;;;0.20;0.20;;;-1.70;99.90;;;-1.84;100.00;99621.81;4919448;29;20235;-72
2022/12/11 09:28:52;;;;;;;0.20;0.20;;;-1.60;99.90;;;-1.72;100.00;99633.63;4929095;29;20266;-73
2022/12/11 09:31:29;;;;;;;0.10;0.10;;;-0.70;99.90;;;-1.66;100.00;99630.41;4921897;29;20627;-74
2022/12/11 09:34:00;;;;;;;0.20;0.20;;;-1.40;99.90;;;-1.59;100.00;99631.56;4927857;29;20316;-74
2022/12/11 09:36:27;;;;;;;0.22;0.22;;;-1.30;99.90;;;-1.52;100.00;99628.44;4911173;29;20329;-73
2022/12/11 09:38:54;;;;;;;0.30;0.30;;;-1.30;99.90;;;-1.54;100.00;99632.66;4927716;29;20258;-73
2022/12/11 09:41:21;;;;;;;0.65;0.65;;;-1.30;99.90;;;-1.50;100.00;99632.88;4928217;29;20238;-74
2022/12/11 09:43:57;;;;;;;0.20;0.20;;;-0.10;99.90;;;-1.44;100.00;99638.31;4923574;29;20313;-73
2022/12/11 09:46:26;;;;;;;0.15;0.15;;;-1.20;99.90;;;-1.34;100.00;99637.00;4926615;29;20270;-74
2022/12/11 09:49:03;;;;;;;0.20;0.20;;;-1.10;99.90;;;-1.27;100.00;99638.19;4915956;29;20245;-73
2022/12/11 09:51:55;;;;;;;0.47;0.47;;;-1.10;99.90;;;-1.27;100.00;99633.91;4907898;29;20230;-73
2022/12/11 09:54:22;;;;;;;0.20;0.20;;;-1.00;99.90;;;-1.22;100.00;99634.09;4910426;29;20321;-74
2022/12/11 09:57:09;;;;;;;0.20;0.20;;;-0.90;99.90;;;-1.15;100.00;99630.94;4906163;29;20235;-73
2022/12/11 10:00:03;;;;;;;0.20;0.20;;;-1.00;99.90;;;-1.19;100.00;99642.00;4909598;29;20762;-73
2022/12/11 10:02:42;;;;;;;0.20;0.20;;;-1.00;99.90;;;-1.06;100.00;99637.41;4932502;29;20230;-74
2022/12/11 10:05:38;;;;;;;0.20;0.20;;;-0.40;99.90;;;-1.03;100.00;99636.63;4910812;29;20237;-74
2022/12/11 10:08:24;;;;;;;0.20;0.20;;;-0.80;99.90;;;-1.03;100.00;99634.03;4920063;29;20333;-75
2022/12/11 10:11:05;;;;;;;0.20;0.20;;;-0.80;99.90;;;-0.89;100.00;99639.81;4929584;29;20238;-75
2022/12/11 10:13:59;;;;;;;0.20;0.20;;;-0.70;99.90;;;-0.85;100.00;99642.59;4924145;29;20326;-75
2022/12/11 10:16:43;;;;;;;0.10;0.10;;;-0.70;99.90;;;-0.68;100.00;99656.25;4930326;29;20659;-74
2022/12/11 10:19:23;;;;;;;0.20;0.20;;;-0.50;99.90;;;-0.66;100.00;99659.81;4908876;29;20253;-75
2022/12/11 10:21:51;;;;;;;0.20;0.20;;;-0.30;99.90;;;-0.75;100.00;99655.13;4918423;29;20261;-75
2022/12/11 10:24:45;;;;;;;0.20;0.20;;;-0.30;99.90;;;-0.49;100.00;99665.69;4909028;29;20238;-78
2022/12/11 10:27:38;;;;;;;0.20;0.20;;;-0.40;99.90;;;-0.40;100.00;99673.84;4909374;28;20240;-73
2022/12/11 10:30:20;;;;;;;0.10;0.10;;;-0.20;99.90;;;-0.25;100.00;99671.84;4925059;29;20250;-74
2022/12/11 10:35:43;;;;;;;0.50;0.50;;;-0.10;99.90;;;-0.36;100.00;99647.16;4824404;29;20370;-65
2022/12/11 10:38:15;;;;;;;0.47;0.47;;;0.10;99.90;;;-0.38;100.00;99651.41;4849106;29;20239;-65
2022/12/11 10:40:50;;;;;;;0.20;0.20;;;-0.10;99.90;;;-0.41;100.00;99648.69;4860569;29;20236;-66
2022/12/11 10:43:17;;;;;;;0.20;0.20;;;0.30;99.90;;;-0.17;100.00;99654.84;4872834;29;20314;-66
2022/12/11 10:45:54;;;;;;;0.22;0.22;;;0.10;99.90;;;-0.30;100.00;99644.81;4865080;29;20359;-65
2022/12/11 10:51:04;;;;;;;1.10;1.10;;;0.10;99.90;;;0.08;100.00;99672.31;4894659;23;20267;-78
2022/12/11 10:53:33;;;;;;;0.30;0.30;;;1.40;99.90;;;0.05;100.00;99648.81;4917383;29;20286;-78
2022/12/11 10:56:01;;;;;;;0.20;0.20;;;1.50;99.90;;;-0.27;100.00;99634.53;4913707;29;20262;-80
2022/12/11 10:58:32;;;;;;;0.13;0.13;;;0.10;99.90;;;-0.23;100.00;99635.53;4913243;29;20234;-80
2022/12/11 11:01:15;;;;;;;0.20;0.20;;;0.90;99.90;;;-0.15;100.00;99639.31;4932725;29;20245;-79
2022/12/11 11:04:13;;;;;;;0.20;0.20;;;0.10;99.90;;;-0.09;100.00;99642.16;4934927;29;20258;-80
2022/12/11 11:06:40;;;;;;;0.20;0.20;;;0.40;99.90;;;-0.10;100.00;99643.00;4910384;29;20226;-78
2022/12/11 11:09:38;;;;;;;0.20;0.20;;;0.20;99.90;;;-0.16;100.00;99628.03;4905752;29;20241;-78
2022/12/11 11:12:25;;;;;;;0.20;0.20;;;0.30;99.90;;;-0.02;100.00;99636.38;4907139;29;20282;-77
2022/12/11 11:15:06;;;;;;;0.15;0.15;;;0.20;99.90;;;0.13;100.00;99649.09;4929386;29;20782;-78
2022/12/11 11:17:47;;;;;;;0.10;0.10;;;0.30;99.90;;;0.01;100.00;99628.72;4926569;29;20240;-77
2022/12/11 11:20:28;;;;;;;1.20;0.68;;;0.40;99.90;;;0.06;100.00;99628.91;4912607;29;20247;-77
2022/12/11 11:23:02;;;;;;;0.80;0.75;;;0.40;99.90;;;0.15;100.00;99643.13;4912362;29;20281;-77
2022/12/11 11:25:32;;;;;;;0.15;0.15;;;0.90;99.90;;;0.17;100.00;99623.28;4908493;29;20232;-77
2022/12/11 11:28:14;;;;;;;0.52;0.52;;;0.40;99.90;;;0.25;100.00;99629.63;4910341;28;21405;-77
2022/12/11 11:31:00;;;;;;;0.57;0.57;;;-0.70;99.90;;;0.20;100.00;99622.50;4924030;29;20301;-77
2022/12/11 11:33:34;;;;;;;0.30;0.30;;;1.00;99.90;;;0.41;100.00;99638.88;4915519;29;20227;-77
2022/12/11 11:36:05;;;;;;;0.20;0.20;;;0.50;99.90;;;0.18;100.00;99604.25;4930285;28;20317;-77
2022/12/11 11:38:40;;;;;;;0.30;0.30;;;0.60;99.90;;;0.31;100.00;99615.97;4926873;29;20698;-77
2022/12/11 11:41:19;;;;;;;0.30;0.30;;;1.80;99.90;;;0.29;100.00;99613.31;4908357;29;20222;-77
2022/12/11 11:43:57;;;;;;;0.17;0.17;;;0.60;99.90;;;0.38;100.00;99601.47;4903127;29;20230;-78
2022/12/11 11:46:45;;;;;;;0.20;0.20;;;0.60;99.90;;;0.42;100.00;99608.56;4904827;29;20234;-77
2022/12/11 11:49:54;;;;;;;0.20;0.20;;;0.60;99.90;;;0.37;100.00;99604.91;4905508;29;20308;-75
2022/12/11 11:53:06;;;;;;;0.20;0.20;;;0.60;99.90;;;0.48;100.00;99608.78;4922690;29;20239;-76
2022/12/11 11:55:54;;;;;;;0.20;0.20;;;0.80;99.90;;;0.52;100.00;99613.25;4910523;29;20230;-75
2022/12/11 11:58:36;;;;;;;0.40;0.40;;;1.80;99.90;;;0.41;100.00;99599.88;4907000;28;20276;-78
2022/12/11 12:01:16;;;;;;;0.10;0.10;;;0.70;99.90;;;0.52;100.00;99610.66;4920976;29;20678;-76
2022/12/11 12:03:44;;;;;;;0.20;0.20;;;0.70;99.90;;;0.44;100.00;99586.97;4905742;29;20625;-75
2022/12/11 12:06:33;;;;;;;0.20;0.20;;;0.80;99.90;;;0.56;100.00;99608.22;4915373;29;20234;-75
2022/12/11 12:09:28;;;;;;;0.20;0.20;;;0.80;99.90;;;0.62;100.00;99592.81;4913901;29;20253;-76
2022/12/11 12:12:08;;;;;;;0.10;0.10;;;0.80;99.90;;;0.46;100.00;99584.44;4903357;29;20230;-75
2022/12/11 12:15:06;;;;;;;0.20;0.20;;;0.80;99.90;;;0.64;100.00;99591.16;4935119;28;20237;-76
2022/12/11 12:18:18;;;;;;;0.40;0.40;;;0.80;99.90;;;0.51;100.00;99581.16;4920273;29;20293;-76
2022/12/11 12:21:17;;;;;;;0.10;0.10;;;0.80;99.90;;;0.45;100.00;99573.16;4934133;28;20237;-76
2022/12/11 12:24:10;;;;;;;0.20;0.20;;;0.80;99.90;;;0.54;100.00;99585.59;4936692;28;20230;-76
2022/12/11 12:26:45;;;;;;;0.20;0.20;;;0.80;99.90;;;0.63;100.00;99581.59;4926973;29;20257;-75
2022/12/11 12:30:02;;;;;;;0.13;0.13;;;1.20;99.90;;;0.43;100.00;99576.53;4909520;28;20294;-75
2022/12/11 12:32:52;;;;;;;0.13;0.13;;;0.70;99.90;;;0.47;100.00;99588.81;4923416;29;20659;-77
2022/12/11 12:35:42;;;;;;;0.10;0.10;;;0.80;99.90;;;0.44;100.00;99570.50;4915588;28;20257;-75
2022/12/11 12:38:52;;;;;;;0.20;0.20;;;0.60;99.90;;;0.39;100.00;99577.25;4908681;29;20230;-77
2022/12/11 12:41:57;;;;;;;0.10;0.10;;;1.20;99.90;;;0.42;100.00;99565.22;4910062;28;20230;-76
2022/12/11 12:44:58;;;;;;;0.13;0.13;;;0.60;99.90;;;0.48;100.00;99577.56;4923758;28;20249;-76
2022/12/11 12:47:33;;;;;;;0.20;0.20;;;0.80;99.90;;;0.49;100.00;99574.13;4923277;29;20260;-77
2022/12/11 12:50:18;;;;;;;0.20;0.20;;;0.90;99.90;;;0.49;100.00;99568.94;4911075;29;20238;-77
2022/12/11 12:52:56;;;;;;;0.20;0.20;;;0.80;99.90;;;0.41;100.00;99560.88;4911721;29;20245;-76
2022/12/11 12:55:28;;;;;;;0.47;0.47;;;0.80;99.90;;;0.58;100.00;99577.06;4898173;29;20299;-76
2022/12/11 12:58:01;;;;;;;0.20;0.20;;;2.00;99.90;;;0.44;100.00;99560.97;4909589;29;20258;-77
2022/12/11 13:00:40;;;;;;;0.13;0.13;;;1.70;99.90;;;0.44;100.00;99566.16;4881765;29;20651;-77
2022/12/11 13:03:29;;;;;;;0.20;0.20;;;0.80;99.90;;;0.57;100.00;99570.97;4913672;29;20320;-77
2022/12/11 13:06:04;;;;;;;0.20;0.20;;;0.90;99.90;;;0.60;100.00;99560.66;4920295;29;20241;-77
2022/12/11 13:08:52;;;;;;;0.20;0.20;;;0.80;99.90;;;0.78;100.00;99564.72;4931268;28;20246;-77